Time;durP1;ratioP1;P1;durP2;ratioP2;P2;SDS_P1;SDS_P2;PMS_P1;PMS_P2;Temp;Humidity;BMP_temperature;BMP_pressure;BME280_temperature;BME280_humidity;BME280_pressure;Samples;Min_cycle;Max_cycle;Signal;HPM_P1;HPM_P2
2021/09/01 00:01:17;;;;;;;3.55;2.72;;;19.90;67.20;;;;;;5034884;28;20033;-65
2021/09/01 00:03:43;;;;;;;5.00;3.15;;;19.90;67.40;;;;;;5027941;28;20084;-66
2021/09/01 00:06:09;;;;;;;5.38;3.70;;;19.90;67.30;;;;;;5007616;28;20025;-65
2021/09/01 00:08:35;;;;;;;4.20;3.22;;;19.90;67.40;;;;;;5010332;28;20030;-65
2021/09/01 00:11:01;;;;;;;4.45;3.10;;;19.90;67.60;;;;;;5014385;28;20025;-65
2021/09/01 00:13:27;;;;;;;3.88;3.30;;;19.80;67.40;;;;;;5014031;28;20121;-65
2021/09/01 00:15:52;;;;;;;5.25;3.53;;;19.80;67.60;;;;;;4997635;28;20041;-65
2021/09/01 00:18:18;;;;;;;5.40;3.45;;;19.80;67.70;;;;;;5014827;28;20038;-65
2021/09/01 00:20:44;;;;;;;3.75;3.30;;;19.80;67.70;;;;;;5031180;28;20082;-65
2021/09/01 00:23:14;;;;;;;4.78;3.15;;;19.80;67.70;;;;;;5034588;28;20025;-65
2021/09/01 00:25:41;;;;;;;4.30;3.70;;;19.80;67.90;;;;;;5032723;28;20033;-65
2021/09/01 00:28:07;;;;;;;4.85;3.97;;;19.70;67.80;;;;;;4998214;28;20030;-65
2021/09/01 00:30:32;;;;;;;4.68;3.72;;;19.70;68.00;;;;;;5012235;28;20503;-65
2021/09/01 00:32:58;;;;;;;4.40;3.83;;;19.70;67.80;;;;;;5034072;28;20466;-65
2021/09/01 00:35:24;;;;;;;4.05;3.33;;;19.70;67.90;;;;;;5034405;28;20044;-65
2021/09/01 00:37:50;;;;;;;4.03;3.47;;;19.70;68.00;;;;;;5034546;28;20032;-65
2021/09/01 00:40:15;;;;;;;4.72;3.60;;;19.70;68.10;;;;;;4995678;28;20548;-65
2021/09/01 00:42:42;;;;;;;5.03;3.38;;;19.70;67.90;;;;;;5003206;28;20055;-65
2021/09/01 00:45:08;;;;;;;4.93;3.95;;;19.70;68.00;;;;;;5015477;28;20032;-65
2021/09/01 00:47:38;;;;;;;5.30;3.97;;;19.70;68.00;;;;;;5016550;28;20055;-65
2021/09/01 00:50:06;;;;;;;5.85;4.38;;;19.70;68.00;;;;;;5024242;28;20075;-65
2021/09/01 00:52:33;;;;;;;5.57;4.32;;;19.60;68.10;;;;;;5016466;28;20030;-65
2021/09/01 00:55:01;;;;;;;5.70;4.28;;;19.60;68.20;;;;;;5014161;28;20040;-65
2021/09/01 00:57:27;;;;;;;4.75;4.13;;;19.60;68.00;;;;;;5014625;28;20029;-65
2021/09/01 00:59:53;;;;;;;5.80;4.13;;;19.60;68.10;;;;;;5009448;28;20041;-65
2021/09/01 01:02:21;;;;;;;6.10;4.50;;;19.60;68.20;;;;;;5016830;28;20090;-65
2021/09/01 01:04:46;;;;;;;7.18;4.57;;;19.50;68.10;;;;;;5014069;28;20034;-65
2021/09/01 01:07:12;;;;;;;5.10;3.80;;;19.50;68.10;;;;;;5018836;28;20032;-64
2021/09/01 01:09:40;;;;;;;6.20;4.20;;;19.40;68.10;;;;;;5019595;28;20017;-65
2021/09/01 01:12:21;;;;;;;7.22;4.07;;;19.40;68.40;;;;;;5013096;28;20100;-65
2021/09/01 01:14:50;;;;;;;5.60;4.05;;;19.40;68.50;;;;;;5016444;28;20041;-65
2021/09/01 01:17:18;;;;;;;5.93;3.97;;;19.40;68.60;;;;;;5013091;28;20528;-64
2021/09/01 01:19:51;;;;;;;4.55;3.30;;;19.40;68.60;;;;;;5019570;28;20053;-65
2021/09/01 01:22:20;;;;;;;5.68;4.57;;;19.40;68.70;;;;;;5033441;28;20024;-66
2021/09/01 01:24:59;;;;;;;5.28;3.83;;;19.30;68.80;;;;;;5033492;28;20172;-65
2021/09/01 01:27:36;;;;;;;5.10;4.25;;;19.30;68.80;;;;;;5027717;28;20026;-65
2021/09/01 01:30:10;;;;;;;4.72;3.72;;;19.30;69.00;;;;;;5008434;28;20104;-65
2021/09/01 01:32:37;;;;;;;5.65;4.05;;;19.30;69.00;;;;;;5012254;28;20050;-65
2021/09/01 01:35:03;;;;;;;6.53;4.10;;;19.30;68.90;;;;;;5013240;28;20037;-65
2021/09/01 01:37:29;;;;;;;5.38;4.00;;;19.30;69.00;;;;;;5026352;28;20037;-65
2021/09/01 01:39:54;;;;;;;6.18;4.32;;;19.30;69.20;;;;;;5020837;28;20374;-65
2021/09/01 01:42:20;;;;;;;6.00;4.65;;;19.30;69.20;;;;;;4995362;28;20037;-65
2021/09/01 01:44:46;;;;;;;4.78;3.75;;;19.20;69.20;;;;;;5026573;28;20107;-65
2021/09/01 01:47:11;;;;;;;5.75;3.92;;;19.20;69.20;;;;;;5013639;28;20121;-65
2021/09/01 01:49:37;;;;;;;5.07;4.20;;;19.20;69.20;;;;;;5023743;28;20462;-65
2021/09/01 01:52:03;;;;;;;5.13;3.85;;;19.20;69.20;;;;;;5014246;28;20022;-65
2021/09/01 01:54:29;;;;;;;6.82;4.15;;;19.20;69.40;;;;;;5026098;28;20029;-65
2021/09/01 01:56:54;;;;;;;5.80;4.10;;;19.20;69.30;;;;;;5033135;28;20041;-65
2021/09/01 01:59:20;;;;;;;6.45;4.50;;;19.20;69.30;;;;;;5014529;28;20033;-65
2021/09/01 02:01:45;;;;;;;5.97;4.32;;;19.20;69.50;;;;;;5012021;28;20044;-65
2021/09/01 02:04:11;;;;;;;5.72;4.30;;;19.20;69.40;;;;;;5010718;28;20120;-65
2021/09/01 02:06:37;;;;;;;5.78;4.50;;;19.20;69.60;;;;;;5013141;28;20026;-65
2021/09/01 02:09:03;;;;;;;7.40;4.57;;;19.10;69.20;;;;;;5026894;28;20386;-65
2021/09/01 02:11:28;;;;;;;5.95;4.50;;;19.10;69.30;;;;;;5016975;28;20037;-65
2021/09/01 02:13:54;;;;;;;6.50;4.60;;;19.10;69.30;;;;;;5021191;28;20041;-65
2021/09/01 02:16:20;;;;;;;7.75;5.10;;;19.10;69.40;;;;;;5032627;28;20497;-65
2021/09/01 02:18:45;;;;;;;5.70;4.45;;;19.10;69.50;;;;;;5020531;28;20126;-65
2021/09/01 02:21:11;;;;;;;6.10;4.90;;;19.00;69.60;;;;;;5013885;28;20030;-65
2021/09/01 02:23:36;;;;;;;6.00;4.70;;;19.00;69.70;;;;;;5013311;28;20478;-65
2021/09/01 02:26:02;;;;;;;5.80;4.80;;;19.00;69.60;;;;;;5022342;28;20026;-65
2021/09/01 02:28:28;;;;;;;5.63;4.72;;;18.90;69.80;;;;;;5036331;28;20033;-65
2021/09/01 02:30:54;;;;;;;5.63;5.00;;;18.90;69.80;;;;;;5013297;28;20060;-65
2021/09/01 02:33:19;;;;;;;6.65;4.93;;;18.90;70.00;;;;;;5001262;28;20026;-65
2021/09/01 02:35:45;;;;;;;6.88;5.20;;;18.90;70.00;;;;;;5017356;28;20029;-65
2021/09/01 02:38:11;;;;;;;5.65;4.65;;;18.90;70.10;;;;;;5024890;28;20121;-65
2021/09/01 02:40:36;;;;;;;5.35;4.13;;;18.80;70.00;;;;;;5016798;28;20068;-65
2021/09/01 02:43:02;;;;;;;5.35;4.20;;;18.80;70.10;;;;;;5023300;28;20361;-65
2021/09/01 02:45:28;;;;;;;7.03;4.47;;;18.70;70.10;;;;;;5034917;28;20045;-65
2021/09/01 02:47:54;;;;;;;5.63;4.43;;;18.70;70.20;;;;;;5031094;28;20354;-65
2021/09/01 02:50:20;;;;;;;5.55;3.92;;;18.70;70.30;;;;;;5016740;28;20073;-65
2021/09/01 02:52:46;;;;;;;5.03;3.90;;;18.70;70.20;;;;;;5016728;28;20026;-65
2021/09/01 02:55:12;;;;;;;4.97;4.13;;;18.60;70.30;;;;;;5025474;28;20030;-65
2021/09/01 02:57:38;;;;;;;5.15;3.70;;;18.60;70.40;;;;;;5018871;28;20033;-65
2021/09/01 03:00:05;;;;;;;5.18;4.15;;;18.60;70.50;;;;;;5036273;28;20048;-65
2021/09/01 03:02:31;;;;;;;5.97;4.10;;;18.50;70.60;;;;;;5016658;28;20034;-65
2021/09/01 03:04:56;;;;;;;6.47;4.03;;;18.50;70.70;;;;;;5032734;28;20029;-65
2021/09/01 03:07:22;;;;;;;6.10;4.25;;;18.50;70.80;;;;;;5035437;28;20076;-65
2021/09/01 03:09:48;;;;;;;10.32;4.38;;;18.50;70.80;;;;;;5017480;28;20025;-65
2021/09/01 03:12:13;;;;;;;6.55;4.40;;;18.50;70.90;;;;;;5014550;28;20021;-65
2021/09/01 03:14:39;;;;;;;5.95;4.32;;;18.50;70.90;;;;;;5016238;28;20051;-65
2021/09/01 03:17:05;;;;;;;5.18;3.90;;;18.50;70.90;;;;;;5016252;28;20030;-65
2021/09/01 03:19:30;;;;;;;5.90;3.90;;;18.50;70.90;;;;;;5033151;28;20064;-65
2021/09/01 03:21:56;;;;;;;5.88;4.10;;;18.50;71.00;;;;;;5036178;28;20033;-65
2021/09/01 03:24:22;;;;;;;6.45;4.25;;;18.50;71.20;;;;;;5035634;28;20442;-65
2021/09/01 03:26:47;;;;;;;8.60;4.03;;;18.50;71.20;;;;;;5035540;28;20104;-65
2021/09/01 03:29:13;;;;;;;5.28;4.10;;;18.60;71.30;;;;;;5026279;28;20026;-65
2021/09/01 03:31:39;;;;;;;5.00;4.13;;;18.60;71.00;;;;;;5015178;28;20103;-65
2021/09/01 03:34:04;;;;;;;5.28;4.10;;;18.60;70.90;;;;;;5015244;28;20112;-65
2021/09/01 03:36:30;;;;;;;5.32;3.65;;;18.60;70.90;;;;;;5015233;28;20026;-65
2021/09/01 03:38:56;;;;;;;4.78;4.05;;;18.60;71.10;;;;;;5028666;28;20048;-65
2021/09/01 03:41:21;;;;;;;5.75;4.50;;;18.60;71.00;;;;;;5035537;28;20029;-65
2021/09/01 03:43:47;;;;;;;6.22;4.10;;;18.70;70.80;;;;;;5033324;28;20087;-65
2021/09/01 03:46:13;;;;;;;5.28;3.80;;;18.60;70.60;;;;;;5016928;28;20109;-65
2021/09/01 03:48:38;;;;;;;6.72;5.05;;;18.70;70.70;;;;;;5024902;28;20025;-65
2021/09/01 03:51:04;;;;;;;7.43;4.72;;;18.60;71.30;;;;;;5028967;28;20029;-65
2021/09/01 03:53:30;;;;;;;5.75;4.70;;;18.60;70.70;;;;;;5014475;28;20378;-65
2021/09/01 03:55:55;;;;;;;5.30;4.38;;;18.60;70.50;;;;;;5019177;28;20041;-65
2021/09/01 03:58:21;;;;;;;5.75;4.43;;;18.60;70.70;;;;;;5034847;28;20021;-65
2021/09/01 04:00:47;;;;;;;5.65;4.10;;;18.60;70.50;;;;;;5035058;28;20030;-65
2021/09/01 04:03:13;;;;;;;6.45;4.22;;;18.60;70.60;;;;;;5027946;28;20022;-65
2021/09/01 04:05:38;;;;;;;4.65;4.00;;;18.70;70.60;;;;;;5029909;28;20116;-65
2021/09/01 04:08:04;;;;;;;5.35;4.50;;;18.70;70.60;;;;;;5015134;28;20076;-65
2021/09/01 04:10:30;;;;;;;5.03;4.20;;;18.70;70.50;;;;;;5031142;28;20033;-65
2021/09/01 04:12:56;;;;;;;7.07;4.68;;;18.70;70.60;;;;;;5015496;28;20026;-65
2021/09/01 04:15:22;;;;;;;6.10;4.22;;;18.80;70.40;;;;;;5017155;28;20435;-65
2021/09/01 04:17:47;;;;;;;6.28;4.70;;;18.80;70.50;;;;;;5034859;28;20025;-65
2021/09/01 04:20:13;;;;;;;7.10;4.63;;;18.80;70.30;;;;;;5029655;28;20065;-65
2021/09/01 04:22:39;;;;;;;8.43;4.75;;;18.80;70.20;;;;;;5014983;28;20025;-65
2021/09/01 04:25:05;;;;;;;6.35;4.20;;;18.90;70.10;;;;;;5013562;28;20374;-65
2021/09/01 04:27:31;;;;;;;5.80;4.53;;;18.90;70.10;;;;;;5017071;28;20466;-65
2021/09/01 04:29:57;;;;;;;7.25;4.47;;;18.90;70.20;;;;;;5014912;28;20028;-65
2021/09/01 04:32:22;;;;;;;5.40;3.92;;;19.00;70.40;;;;;;5014549;28;20053;-65
2021/09/01 04:34:48;;;;;;;7.30;4.00;;;19.00;70.20;;;;;;5014486;28;20040;-65
2021/09/01 04:37:14;;;;;;;5.80;4.30;;;19.10;70.30;;;;;;5019196;28;20514;-65
2021/09/01 04:39:40;;;;;;;5.75;3.85;;;19.20;70.40;;;;;;5014248;28;20413;-65
2021/09/01 04:42:05;;;;;;;5.10;3.63;;;19.30;70.30;;;;;;5013781;28;20037;-65
2021/09/01 04:44:32;;;;;;;5.07;3.78;;;19.40;70.30;;;;;;5015452;28;20026;-65
2021/09/01 04:46:58;;;;;;;5.05;3.80;;;19.50;70.10;;;;;;5028404;28;20346;-65
2021/09/01 04:49:24;;;;;;;7.32;4.10;;;19.60;70.10;;;;;;5033535;28;20028;-65
2021/09/01 04:51:50;;;;;;;6.38;4.18;;;19.70;70.00;;;;;;5029511;28;20046;-65
2021/09/01 04:54:16;;;;;;;4.82;3.90;;;19.80;69.70;;;;;;5015576;28;20065;-65
2021/09/01 04:56:41;;;;;;;6.22;4.65;;;20.00;69.30;;;;;;5032276;28;20474;-65
2021/09/01 04:59:07;;;;;;;6.57;4.13;;;20.10;69.10;;;;;;5033538;28;20079;-65
2021/09/01 05:01:33;;;;;;;4.82;3.80;;;20.20;68.90;;;;;;5020957;28;20034;-65
2021/09/01 05:03:58;;;;;;;6.30;4.10;;;20.30;68.60;;;;;;5013346;28;20038;-65
2021/09/01 05:06:26;;;;;;;5.47;4.70;;;20.40;68.40;;;;;;5013041;28;20022;-65
2021/09/01 05:08:55;;;;;;;5.88;4.00;;;20.50;68.20;;;;;;5018431;28;20029;-65
2021/09/01 05:11:21;;;;;;;7.40;4.30;;;20.70;68.40;;;;;;5015438;28;20026;-65
2021/09/01 05:13:47;;;;;;;7.82;4.20;;;20.80;68.20;;;;;;5013317;28;20034;-65
2021/09/01 05:16:13;;;;;;;7.43;4.25;;;21.00;67.80;;;;;;5012790;28;20040;-65
2021/09/01 05:18:39;;;;;;;5.38;3.97;;;21.20;67.90;;;;;;5012698;28;20030;-65
2021/09/01 05:21:05;;;;;;;4.75;3.78;;;21.50;67.50;;;;;;5013373;28;20038;-65
2021/09/01 05:23:34;;;;;;;5.75;3.67;;;21.70;66.70;;;;;;5013531;28;20105;-65
2021/09/01 05:26:04;;;;;;;5.22;4.05;;;21.90;65.80;;;;;;5015015;28;20018;-65
2021/09/01 05:28:36;;;;;;;4.45;3.67;;;22.00;65.20;;;;;;5013393;28;20038;-65
2021/09/01 05:31:04;;;;;;;7.22;3.67;;;22.20;64.60;;;;;;4999868;28;20034;-65
2021/09/01 05:33:38;;;;;;;6.38;3.88;;;22.20;64.20;;;;;;5002059;28;20084;-61
2021/09/01 05:36:05;;;;;;;8.98;4.07;;;22.30;64.60;;;;;;5008668;28;20026;-60
2021/09/01 05:38:33;;;;;;;5.32;3.15;;;22.40;64.60;;;;;;5006970;28;20370;-60
2021/09/01 05:40:59;;;;;;;5.10;3.63;;;22.50;64.60;;;;;;5001490;28;20101;-61
2021/09/01 05:43:26;;;;;;;4.40;3.10;;;22.70;63.90;;;;;;5006583;28;20088;-61
2021/09/01 05:45:52;;;;;;;4.72;2.95;;;22.90;63.20;;;;;;5000612;28;20030;-61
2021/09/01 05:48:22;;;;;;;5.22;3.30;;;23.10;62.40;;;;;;5002101;28;20019;-61
2021/09/01 05:50:53;;;;;;;4.18;2.90;;;23.30;62.00;;;;;;4999274;28;21145;-61
2021/09/01 05:53:19;;;;;;;5.47;2.88;;;23.40;61.80;;;;;;4997541;28;20045;-61
2021/09/01 05:55:50;;;;;;;5.40;2.97;;;23.40;61.70;;;;;;4983611;28;20106;-60
2021/09/01 05:58:17;;;;;;;3.30;3.00;;;23.50;61.40;;;;;;5004259;28;20362;-60
2021/09/01 06:00:44;;;;;;;4.30;2.72;;;23.50;61.40;;;;;;4998913;28;20034;-59
2021/09/01 06:03:18;;;;;;;4.38;2.75;;;23.60;61.30;;;;;;5003704;28;20088;-60
2021/09/01 06:05:45;;;;;;;4.15;3.00;;;23.60;60.90;;;;;;5006555;28;20438;-59
2021/09/01 06:08:12;;;;;;;3.40;3.10;;;23.70;60.80;;;;;;5001152;28;22408;-59
2021/09/01 06:10:38;;;;;;;4.13;2.72;;;23.70;60.80;;;;;;5001140;28;20033;-59
2021/09/01 06:13:09;;;;;;;3.03;2.58;;;23.80;60.90;;;;;;5002311;28;20497;-60
2021/09/01 06:15:37;;;;;;;3.00;2.63;;;23.70;60.60;;;;;;5006625;28;20466;-60
2021/09/01 06:18:04;;;;;;;2.97;2.65;;;23.70;60.50;;;;;;5002717;28;20595;-60
2021/09/01 06:20:30;;;;;;;4.32;2.55;;;23.70;60.10;;;;;;5007885;28;20029;-61
2021/09/01 06:22:57;;;;;;;6.70;2.92;;;23.80;60.20;;;;;;4991018;28;20040;-60
2021/09/01 06:25:24;;;;;;;3.78;2.50;;;23.80;60.20;;;;;;4996318;28;20125;-62
2021/09/01 06:27:50;;;;;;;3.67;2.42;;;23.80;60.10;;;;;;5001764;28;20026;-60
2021/09/01 06:30:16;;;;;;;3.05;2.65;;;23.80;60.00;;;;;;5002435;28;20351;-60
2021/09/01 06:32:42;;;;;;;4.18;2.80;;;23.80;60.20;;;;;;5002710;28;20107;-59
2021/09/01 06:35:08;;;;;;;2.78;2.55;;;23.80;60.00;;;;;;4997757;28;20034;-59
2021/09/01 06:37:36;;;;;;;2.78;2.53;;;23.80;60.00;;;;;;4997295;28;20041;-60
2021/09/01 06:40:02;;;;;;;3.90;2.70;;;23.80;59.80;;;;;;5001271;28;20030;-59
2021/09/01 06:42:28;;;;;;;2.88;2.47;;;23.90;60.00;;;;;;5002276;28;20045;-60
2021/09/01 06:44:54;;;;;;;3.72;2.50;;;23.90;59.70;;;;;;4997625;28;20029;-60
2021/09/01 06:47:20;;;;;;;3.13;2.55;;;23.90;59.80;;;;;;5002394;28;20046;-60
2021/09/01 06:49:45;;;;;;;3.30;2.83;;;23.90;59.70;;;;;;5003478;28;20119;-60
2021/09/01 06:52:11;;;;;;;3.03;2.38;;;23.90;60.00;;;;;;4997996;28;20049;-60
2021/09/01 06:54:37;;;;;;;2.90;2.50;;;24.00;59.70;;;;;;4998133;28;22000;-60
2021/09/01 06:57:03;;;;;;;4.70;2.60;;;24.00;59.70;;;;;;4997637;28;20482;-60
2021/09/01 06:59:29;;;;;;;2.40;2.20;;;24.10;60.00;;;;;;5002232;28;20813;-60
2021/09/01 07:01:55;;;;;;;2.92;2.63;;;24.20;59.30;;;;;;5003503;28;20040;-60
2021/09/01 07:04:21;;;;;;;2.92;2.53;;;24.20;59.10;;;;;;4999794;28;20053;-61
2021/09/01 07:06:46;;;;;;;4.20;2.70;;;24.20;59.00;;;;;;5000743;28;22999;-61
2021/09/01 07:09:12;;;;;;;4.30;2.53;;;24.20;59.10;;;;;;4998357;28;20030;-60
2021/09/01 07:11:38;;;;;;;3.58;2.47;;;24.30;58.70;;;;;;4991360;28;20049;-60
2021/09/01 07:14:03;;;;;;;2.67;2.47;;;24.20;58.50;;;;;;4990833;28;20030;-61
2021/09/01 07:16:29;;;;;;;2.67;2.47;;;24.30;58.50;;;;;;4994888;28;20040;-60
2021/09/01 07:18:55;;;;;;;2.63;2.42;;;24.30;58.60;;;;;;4999304;28;20029;-61
2021/09/01 07:21:20;;;;;;;5.80;2.63;;;24.30;58.60;;;;;;4999987;28;20038;-61
2021/09/01 07:23:46;;;;;;;3.40;2.65;;;24.30;58.30;;;;;;4995161;28;20036;-60
2021/09/01 07:26:12;;;;;;;2.45;2.25;;;24.30;58.40;;;;;;4993331;28;20084;-60
2021/09/01 07:28:39;;;;;;;3.17;2.50;;;24.30;58.40;;;;;;4994945;28;20027;-60
2021/09/01 07:31:05;;;;;;;3.22;2.78;;;24.30;58.10;;;;;;4996335;28;20038;-60
2021/09/01 07:33:31;;;;;;;3.63;2.90;;;24.40;58.00;;;;;;5000293;28;20053;-60
2021/09/01 07:35:57;;;;;;;2.58;2.35;;;24.40;57.70;;;;;;5000258;28;20346;-59
2021/09/01 07:38:23;;;;;;;3.78;2.55;;;24.50;58.00;;;;;;4997966;28;20041;-60
2021/09/01 07:40:48;;;;;;;3.17;2.55;;;24.50;57.70;;;;;;4996120;28;20440;-60
2021/09/01 07:43:14;;;;;;;2.53;2.33;;;24.50;58.00;;;;;;4986896;28;20032;-59
2021/09/01 07:45:42;;;;;;;2.65;2.42;;;24.50;57.80;;;;;;4981552;28;20161;-59
2021/09/01 07:48:12;;;;;;;2.95;2.65;;;24.60;57.70;;;;;;4989383;28;20061;-60
2021/09/01 07:50:37;;;;;;;3.03;2.72;;;24.60;57.40;;;;;;4994221;28;20022;-60
2021/09/01 07:53:03;;;;;;;4.18;2.80;;;24.60;57.10;;;;;;4990419;28;20116;-60
2021/09/01 07:55:29;;;;;;;2.78;2.55;;;24.60;56.90;;;;;;4990644;28;20033;-61
2021/09/01 07:57:54;;;;;;;5.55;2.75;;;24.60;56.80;;;;;;4988263;28;20446;-60
2021/09/01 08:00:20;;;;;;;3.03;2.72;;;24.60;56.70;;;;;;4999087;28;20133;-61
2021/09/01 08:02:46;;;;;;;2.35;2.15;;;24.60;56.40;;;;;;4997202;28;20041;-61
2021/09/01 08:05:12;;;;;;;2.78;2.50;;;24.60;56.20;;;;;;4995340;28;20030;-61
2021/09/01 08:07:37;;;;;;;2.67;2.22;;;24.70;56.30;;;;;;4992070;28;20598;-61
2021/09/01 08:10:05;;;;;;;2.78;2.40;;;24.70;56.00;;;;;;4998012;28;20030;-61
2021/09/01 08:12:30;;;;;;;2.72;2.17;;;24.70;55.80;;;;;;4996341;28;20061;-61
2021/09/01 08:14:56;;;;;;;3.67;2.60;;;24.70;55.80;;;;;;4995843;28;20042;-61
2021/09/01 08:17:22;;;;;;;3.72;2.70;;;24.70;55.40;;;;;;4993902;28;20528;-61
2021/09/01 08:19:48;;;;;;;4.40;2.78;;;24.70;55.10;;;;;;4994045;28;20034;-61
2021/09/01 08:22:13;;;;;;;6.85;2.70;;;24.70;55.20;;;;;;4990016;28;20034;-61
2021/09/01 08:24:39;;;;;;;3.25;2.67;;;24.80;55.20;;;;;;4991530;28;20030;-61
2021/09/01 08:27:07;;;;;;;3.42;2.58;;;24.80;55.10;;;;;;4991978;28;20036;-61
2021/09/01 08:29:32;;;;;;;2.92;2.63;;;24.80;55.00;;;;;;4994881;28;20101;-60
2021/09/01 08:31:58;;;;;;;2.90;2.60;;;24.80;55.10;;;;;;4983287;28;20521;-60
2021/09/01 08:34:24;;;;;;;3.92;2.80;;;24.80;54.70;;;;;;4982577;28;20038;-60
2021/09/01 08:36:50;;;;;;;2.92;2.55;;;24.80;54.70;;;;;;4989902;28;20034;-61
2021/09/01 08:39:16;;;;;;;4.43;2.63;;;24.80;54.80;;;;;;4988648;28;20084;-61
2021/09/01 08:41:43;;;;;;;3.00;2.70;;;24.80;55.00;;;;;;4988492;28;20033;-60
2021/09/01 08:44:09;;;;;;;3.58;2.58;;;24.90;55.10;;;;;;4993613;28;20123;-61
2021/09/01 08:46:35;;;;;;;3.15;2.60;;;24.90;55.40;;;;;;4984433;28;20029;-61
2021/09/01 08:49:02;;;;;;;2.97;2.67;;;25.00;55.40;;;;;;4998555;28;20362;-61
2021/09/01 08:51:29;;;;;;;3.53;2.67;;;25.00;55.00;;;;;;4992406;28;20034;-61
2021/09/01 08:53:56;;;;;;;2.85;2.65;;;25.10;54.60;;;;;;4991650;28;20121;-60
2021/09/01 08:56:23;;;;;;;2.97;2.70;;;25.20;54.40;;;;;;4985931;28;20498;-60
2021/09/01 08:58:49;;;;;;;2.72;2.50;;;25.20;54.30;;;;;;4977548;28;20115;-60
2021/09/01 09:01:40;;;;;;;3.58;2.60;;;25.30;54.10;;;;;;4989366;28;20033;-61
2021/09/01 09:04:12;;;;;;;3.25;2.45;;;25.30;54.10;;;;;;4995158;28;20040;-61
2021/09/01 09:06:49;;;;;;;2.60;2.40;;;25.40;54.30;;;;;;4993271;28;20037;-61
2021/09/01 09:09:17;;;;;;;3.00;2.60;;;25.40;54.30;;;;;;4995818;28;20022;-61
2021/09/01 09:11:43;;;;;;;3.08;2.38;;;25.50;54.30;;;;;;4996081;28;20121;-60
2021/09/01 09:14:27;;;;;;;2.83;2.45;;;25.60;54.30;;;;;;4993586;28;20083;-60
2021/09/01 09:17:13;;;;;;;2.38;2.20;;;25.60;53.90;;;;;;4984204;28;20048;-60
2021/09/01 09:19:48;;;;;;;3.75;2.67;;;25.80;54.10;;;;;;4991603;28;20133;-60
2021/09/01 09:22:19;;;;;;;2.50;2.30;;;25.80;53.60;;;;;;4986517;28;20250;-58
2021/09/01 09:25:02;;;;;;;2.47;2.28;;;25.90;53.40;;;;;;4987602;28;20034;-59
2021/09/01 09:27:48;;;;;;;2.22;2.03;;;25.90;53.10;;;;;;4991189;28;20513;-60
2021/09/01 09:30:38;;;;;;;2.85;2.55;;;26.00;53.10;;;;;;4982300;28;20029;-61
2021/09/01 09:33:04;;;;;;;2.63;2.42;;;26.00;53.00;;;;;;4982793;28;20045;-61
2021/09/01 09:35:59;;;;;;;2.75;2.50;;;26.00;52.80;;;;;;4987179;28;20037;-60
2021/09/01 09:38:40;;;;;;;2.58;2.38;;;25.90;52.40;;;;;;4981515;28;20033;-61
2021/09/01 09:41:18;;;;;;;2.67;2.47;;;25.90;53.00;;;;;;4992571;28;20421;-60
2021/09/01 09:43:43;;;;;;;2.63;2.33;;;25.80;52.60;;;;;;4990331;28;20033;-60
2021/09/01 09:46:10;;;;;;;4.30;2.50;;;25.80;52.70;;;;;;4992347;28;20040;-60
2021/09/01 09:48:39;;;;;;;2.85;2.25;;;25.80;52.60;;;;;;4993551;28;20421;-61
2021/09/01 09:51:08;;;;;;;2.63;2.42;;;25.80;52.40;;;;;;4999451;28;20058;-60
2021/09/01 09:53:45;;;;;;;2.85;2.53;;;25.80;52.80;;;;;;4992755;28;21908;-60
2021/09/01 09:56:23;;;;;;;2.70;2.50;;;25.80;52.70;;;;;;4991288;28;20044;-61
2021/09/01 09:58:54;;;;;;;2.85;2.65;;;25.80;52.40;;;;;;4989842;28;20084;-61
2021/09/01 10:01:21;;;;;;;2.97;2.50;;;25.80;52.00;;;;;;4990835;28;20033;-60
2021/09/01 10:03:49;;;;;;;2.97;2.60;;;25.80;51.70;;;;;;4982065;28;20037;-61
2021/09/01 10:06:17;;;;;;;2.80;2.60;;;25.80;51.60;;;;;;4986367;28;21655;-60
2021/09/01 10:08:45;;;;;;;2.97;2.65;;;25.80;51.70;;;;;;4991878;28;20080;-61
2021/09/01 10:11:13;;;;;;;2.67;2.47;;;25.70;51.50;;;;;;4994814;28;20029;-61
2021/09/01 10:13:43;;;;;;;2.58;2.38;;;25.70;51.40;;;;;;4996627;28;20029;-60
2021/09/01 10:16:21;;;;;;;2.85;2.65;;;25.70;51.60;;;;;;4993644;28;20030;-60
2021/09/01 10:18:56;;;;;;;3.17;2.60;;;25.70;52.10;;;;;;4998106;28;20165;-61
2021/09/01 10:21:25;;;;;;;2.70;2.30;;;25.70;51.10;;;;;;4996712;28;20037;-61
2021/09/01 10:23:51;;;;;;;4.75;2.30;;;25.70;51.40;;;;;;4993714;28;20041;-61
2021/09/01 10:26:32;;;;;;;8.75;2.95;;;25.60;51.40;;;;;;4997279;28;20030;-61
2021/09/01 10:29:02;;;;;;;3.00;2.45;;;25.60;51.70;;;;;;4998138;28;20092;-61
2021/09/01 10:31:33;;;;;;;3.05;2.53;;;25.60;51.40;;;;;;4997282;28;20062;-61
2021/09/01 10:34:02;;;;;;;3.50;2.60;;;25.50;51.40;;;;;;4996242;28;20034;-61
2021/09/01 10:36:28;;;;;;;2.90;2.60;;;25.40;51.50;;;;;;4992225;28;20097;-61
2021/09/01 10:38:55;;;;;;;3.60;2.60;;;25.40;52.40;;;;;;4995632;28;20031;-61
2021/09/01 10:41:30;;;;;;;4.30;2.45;;;25.30;53.20;;;;;;4999959;28;20092;-61
2021/09/01 10:43:56;;;;;;;3.58;2.67;;;25.10;54.50;;;;;;4997102;28;20448;-61
2021/09/01 10:46:22;;;;;;;2.90;2.65;;;25.00;54.40;;;;;;5003596;28;20029;-60
2021/09/01 10:49:01;;;;;;;3.05;2.53;;;24.90;55.00;;;;;;4998755;28;20057;-60
2021/09/01 10:51:29;;;;;;;3.33;2.80;;;24.70;55.60;;;;;;5002524;28;20037;-61
2021/09/01 10:53:54;;;;;;;3.03;2.72;;;24.60;56.20;;;;;;5002808;28;20026;-61
2021/09/01 10:56:20;;;;;;;3.05;2.75;;;24.50;56.40;;;;;;5005135;28;20041;-61
2021/09/01 10:58:48;;;;;;;3.25;2.85;;;24.40;56.50;;;;;;5002703;28;20045;-62
2021/09/01 11:01:24;;;;;;;2.78;2.58;;;24.30;56.60;;;;;;4992174;28;20089;-62
2021/09/01 11:03:53;;;;;;;3.22;2.90;;;24.30;56.70;;;;;;5002408;28;20811;-64
2021/09/01 11:06:20;;;;;;;3.05;2.75;;;24.20;56.90;;;;;;5000052;28;20022;-62
2021/09/01 11:09:03;;;;;;;3.22;2.90;;;24.20;56.90;;;;;;4999863;28;20659;-63
2021/09/01 11:11:52;;;;;;;3.25;2.95;;;24.20;57.50;;;;;;4997199;28;20039;-61
2021/09/01 11:14:29;;;;;;;2.97;2.50;;;24.20;57.60;;;;;;4986761;28;21399;-62
2021/09/01 11:16:55;;;;;;;2.60;2.40;;;24.20;58.10;;;;;;5004366;28;20033;-62
2021/09/01 11:19:21;;;;;;;2.80;2.28;;;24.20;57.70;;;;;;5000366;28;20042;-63
2021/09/01 11:21:48;;;;;;;3.47;2.70;;;24.20;57.80;;;;;;4999590;28;20063;-62
2021/09/01 11:24:16;;;;;;;2.70;2.50;;;24.10;57.90;;;;;;5003234;28;20044;-62
2021/09/01 11:26:42;;;;;;;3.00;2.65;;;24.20;58.00;;;;;;5005153;28;20033;-61
2021/09/01 11:29:10;;;;;;;2.90;2.38;;;24.20;58.00;;;;;;5001497;28;20034;-63
2021/09/01 11:31:44;;;;;;;3.15;2.85;;;24.20;58.10;;;;;;4999338;28;20573;-62
2021/09/01 11:34:14;;;;;;;3.97;2.70;;;24.20;58.00;;;;;;5000021;28;20117;-61
2021/09/01 11:36:41;;;;;;;3.33;2.70;;;24.20;58.20;;;;;;5002628;28;20034;-61
2021/09/01 11:39:08;;;;;;;3.10;2.80;;;24.20;58.30;;;;;;4997367;28;20740;-63
2021/09/01 11:41:34;;;;;;;3.58;2.60;;;24.20;58.30;;;;;;4999590;28;20057;-62
2021/09/01 11:44:06;;;;;;;3.17;2.88;;;24.10;58.00;;;;;;5000155;28;20026;-63
2021/09/01 11:46:35;;;;;;;3.30;3.00;;;24.20;58.50;;;;;;4996436;28;20111;-63
2021/09/01 11:49:09;;;;;;;3.10;2.42;;;24.10;58.40;;;;;;4998167;28;20076;-63
2021/09/01 11:51:36;;;;;;;2.88;2.55;;;24.10;58.60;;;;;;4999504;28;20037;-62
2021/09/01 11:54:03;;;;;;;3.38;2.58;;;24.10;58.60;;;;;;4995721;28;20038;-62
2021/09/01 11:56:29;;;;;;;3.08;2.70;;;24.10;58.60;;;;;;4999317;28;20033;-63
2021/09/01 11:59:14;;;;;;;2.70;2.50;;;24.10;58.70;;;;;;4999720;28;20036;-62
2021/09/01 12:01:53;;;;;;;3.38;2.90;;;24.00;58.70;;;;;;5000397;28;20120;-62
2021/09/01 12:04:20;;;;;;;3.83;3.17;;;24.00;58.60;;;;;;4996981;28;20045;-63
2021/09/01 12:06:52;;;;;;;4.15;2.83;;;24.10;58.50;;;;;;4995501;28;20541;-63
2021/09/01 12:09:19;;;;;;;3.05;2.75;;;24.00;58.40;;;;;;4997862;28;20030;-63
2021/09/01 12:11:58;;;;;;;2.38;2.17;;;24.00;58.40;;;;;;4996937;28;20068;-63
2021/09/01 12:14:32;;;;;;;3.08;2.67;;;24.00;59.10;;;;;;4998034;28;20554;-61
2021/09/01 12:17:22;;;;;;;2.70;2.50;;;23.90;58.30;;;;;;4999477;28;20033;-61
2021/09/01 12:19:59;;;;;;;2.83;2.60;;;24.00;58.40;;;;;;4996411;28;20036;-62
2021/09/01 12:22:30;;;;;;;3.13;2.75;;;24.00;58.30;;;;;;4997204;28;20678;-61
2021/09/01 12:25:01;;;;;;;3.03;2.47;;;24.00;58.00;;;;;;4997785;28;20045;-62
2021/09/01 12:27:27;;;;;;;2.80;2.60;;;24.00;57.90;;;;;;4996940;28;20425;-63
2021/09/01 12:29:53;;;;;;;3.95;3.03;;;24.00;58.10;;;;;;4993541;28;20026;-63
2021/09/01 12:32:21;;;;;;;4.40;3.08;;;24.10;58.30;;;;;;4995845;28;20049;-63
2021/09/01 12:35:00;;;;;;;3.92;2.88;;;24.10;58.60;;;;;;4995326;28;20481;-62
2021/09/01 12:37:31;;;;;;;2.65;2.45;;;24.10;58.80;;;;;;4993089;28;20033;-63
2021/09/01 12:40:00;;;;;;;3.65;2.70;;;24.10;58.80;;;;;;4992140;28;20557;-61
2021/09/01 12:42:39;;;;;;;3.10;2.65;;;24.10;58.90;;;;;;4994035;28;20033;-63
2021/09/01 12:45:18;;;;;;;4.15;2.92;;;24.00;58.60;;;;;;4991171;28;20027;-63
2021/09/01 12:47:58;;;;;;;3.08;2.78;;;24.00;58.70;;;;;;4998217;28;20549;-60
2021/09/01 12:50:31;;;;;;;3.65;2.97;;;24.00;58.70;;;;;;4997024;28;20593;-63
2021/09/01 12:52:56;;;;;;;2.97;2.67;;;24.00;58.60;;;;;;4999314;28;20687;-62